createdAt,value
2022-12-23T00:03:45.362Z,7.41
2022-12-23T00:08:59.194Z,7.42
2022-12-23T00:14:38.706Z,7.43
2022-12-23T00:20:29.563Z,7.38
2022-12-23T00:25:58.797Z,7.38
2022-12-23T00:31:24.788Z,7.44
2022-12-23T00:36:51.097Z,7.46
2022-12-23T00:42:29.838Z,7.49
2022-12-23T00:48:02.974Z,7.47
2022-12-23T00:53:24.091Z,7.47
2022-12-23T00:58:42.554Z,7.39
2022-12-23T01:04:20.578Z,7.31
2022-12-23T01:09:35.467Z,7.29
2022-12-23T01:14:40.539Z,7.27
2022-12-23T01:19:48.499Z,7.27
2022-12-23T01:25:01.472Z,7.35
2022-12-23T01:30:10.225Z,7.43
2022-12-23T01:35:31.467Z,7.46
2022-12-23T01:40:53.465Z,7.46
2022-12-23T01:45:58.388Z,7.44
2022-12-23T01:51:30.644Z,7.37
2022-12-23T02:03:00.492Z,7.23
2022-12-23T02:08:42.238Z,7.19
2022-12-23T02:15:07.446Z,7.24
2022-12-23T02:20:40.609Z,7.32
2022-12-23T02:26:28.397Z,7.22
2022-12-23T02:32:22.938Z,7.07
2022-12-23T02:53:26.730Z,7.04
2022-12-23T03:05:00.965Z,7.16
2022-12-23T03:11:00.119Z,7.18
2022-12-23T03:16:29.590Z,7.17
2022-12-23T03:23:55.284Z,7.19
2022-12-23T03:28:46.602Z,7.16
2022-12-23T03:34:31.117Z,7.19
2022-12-23T03:47:04.278Z,7.33
2022-12-23T04:07:09.048Z,7.29
2022-12-23T04:19:19.870Z,7.20
2022-12-23T04:31:12.094Z,7.25
2022-12-23T04:36:30.245Z,7.33
2022-12-23T04:41:42.212Z,7.35
2022-12-23T04:47:38.697Z,7.28
2022-12-23T04:53:35.184Z,7.27
2022-12-23T04:59:43.059Z,7.39
2022-12-23T05:05:45.157Z,7.28
2022-12-23T05:11:03.370Z,7.21
2022-12-23T05:16:54.915Z,7.22
2022-12-23T05:22:03.645Z,7.27
2022-12-23T05:28:03.028Z,7.15
2022-12-23T05:33:19.872Z,7.00
2022-12-23T05:39:00.444Z,6.80
2022-12-23T05:44:37.871Z,6.63
2022-12-23T05:50:08.625Z,6.43
2022-12-23T06:03:28.035Z,6.05
2022-12-23T06:14:38.121Z,5.79
2022-12-23T06:20:57.739Z,5.74
2022-12-23T06:38:18.003Z,5.64
2022-12-23T06:43:22.472Z,5.56
2022-12-23T06:48:26.263Z,5.45
2022-12-23T06:53:36.623Z,5.39
2022-12-23T06:58:42.295Z,5.34
2022-12-23T07:03:50.948Z,5.32
2022-12-23T07:08:57.349Z,5.39
2022-12-23T07:14:02.574Z,5.42
2022-12-23T07:36:03.476Z,5.49
2022-12-23T07:41:15.638Z,5.51
2022-12-23T07:47:09.966Z,5.51
2022-12-23T07:52:15.366Z,5.55
2022-12-23T07:57:18.744Z,5.58
2022-12-23T08:02:25.510Z,5.66
2022-12-23T08:07:29.028Z,5.84
2022-12-23T08:12:34.258Z,5.95
2022-12-23T08:18:27.999Z,6.02
2022-12-23T08:25:36.049Z,6.07
2022-12-23T08:31:10.086Z,6.18
2022-12-23T08:36:22.448Z,6.24
2022-12-23T08:41:29.602Z,6.25
2022-12-23T08:46:33.104Z,6.32
2022-12-23T08:51:37.295Z,6.65
2022-12-23T08:56:42.061Z,6.89
2022-12-23T09:01:45.251Z,7.11
2022-12-23T09:06:48.374Z,7.30
2022-12-23T09:11:51.664Z,7.41
2022-12-23T09:16:54.892Z,7.48
2022-12-23T09:21:58.008Z,7.53
2022-12-23T09:27:01.256Z,7.59
2022-12-23T09:32:04.646Z,7.75
2022-12-23T09:37:07.927Z,7.96
2022-12-23T09:42:29.460Z,8.14
2022-12-23T09:47:34.188Z,8.17
2022-12-23T09:52:57.768Z,8.15
2022-12-23T09:58:05.559Z,8.12
2022-12-23T10:03:22.660Z,8.15
2022-12-23T10:08:37.592Z,8.14
2022-12-23T10:13:58.676Z,8.24
2022-12-23T10:19:07.082Z,8.37
2022-12-23T10:24:16.959Z,8.42
2022-12-23T10:29:23.083Z,8.51
2022-12-23T10:34:45.081Z,8.63
2022-12-23T10:40:25.705Z,8.64
2022-12-23T10:46:06.639Z,8.63
2022-12-23T10:51:23.362Z,8.62
2022-12-23T10:56:30.050Z,8.59
2022-12-23T11:01:34.838Z,8.59
2022-12-23T11:06:41.629Z,8.65
2022-12-23T11:12:01.743Z,8.68
2022-12-23T11:17:18.198Z,8.78
2022-12-23T11:22:50.813Z,9.02
2022-12-23T11:28:03.265Z,9.19
2022-12-23T11:33:26.480Z,9.35
2022-12-23T11:38:39.766Z,9.42
2022-12-23T11:43:43.729Z,9.48
2022-12-23T11:48:52.957Z,9.53
2022-12-23T11:54:04.891Z,9.53
2022-12-23T11:59:34.423Z,9.53
2022-12-23T12:04:39.016Z,9.49
2022-12-23T12:09:46.124Z,9.53
2022-12-23T12:14:52.871Z,9.62
2022-12-23T12:20:25.770Z,9.73
2022-12-23T12:31:55.598Z,9.75
2022-12-23T12:37:23.602Z,9.88
2022-12-23T12:42:46.900Z,9.88
2022-12-23T12:48:16.294Z,9.79
2022-12-23T12:53:24.375Z,9.76
2022-12-23T12:58:31.311Z,9.85
2022-12-23T13:03:42.330Z,9.90
2022-12-23T13:09:19.438Z,9.91
2022-12-23T13:15:48.954Z,9.94
2022-12-23T13:20:50.668Z,10.00
2022-12-23T13:26:01.940Z,10.04
2022-12-23T13:38:05.016Z,9.84
2022-12-23T13:43:24.435Z,9.70
2022-12-23T13:48:53.142Z,9.56
2022-12-23T13:54:19.630Z,9.39
2022-12-23T13:59:23.242Z,9.29
2022-12-23T14:04:31.887Z,9.28
2022-12-23T14:09:53.215Z,9.31
2022-12-23T14:15:09.250Z,9.34
2022-12-23T14:20:21.783Z,9.43
2022-12-23T14:25:51.092Z,9.38
2022-12-23T14:30:56.679Z,9.28
2022-12-23T14:36:35.735Z,9.21
2022-12-23T14:41:50.716Z,9.22
2022-12-23T14:46:57.771Z,9.28
2022-12-23T14:52:53.198Z,9.41
2022-12-23T15:03:59.190Z,9.50
2022-12-23T15:09:18.032Z,9.50
2022-12-23T15:15:16.799Z,9.49
2022-12-23T15:20:57.265Z,9.45
2022-12-23T15:34:04.720Z,9.35
2022-12-23T15:39:21.100Z,9.24
2022-12-23T15:44:37.252Z,9.17
2022-12-23T15:49:40.531Z,9.19
2022-12-23T15:55:49.080Z,9.21
2022-12-23T16:01:27.073Z,9.23
2022-12-23T16:06:36.372Z,9.20
2022-12-23T16:12:20.018Z,9.12
2022-12-23T16:17:37.334Z,9.00
2022-12-23T16:22:42.207Z,8.87
2022-12-23T16:28:02.759Z,8.83
2022-12-23T16:34:47.863Z,8.86
2022-12-23T16:40:36.645Z,8.90
2022-12-23T16:46:09.809Z,9.00
2022-12-23T16:51:41.596Z,9.06
2022-12-23T17:13:15.256Z,9.05
2022-12-23T17:19:29.453Z,8.84
2022-12-23T18:03:43.204Z,8.49
2022-12-23T18:10:02.059Z,8.54
2022-12-23T18:16:34.712Z,8.42
2022-12-23T18:23:15.667Z,8.30
2022-12-23T18:29:30.278Z,8.27
2022-12-23T18:42:10.204Z,8.03
2022-12-23T19:02:26.276Z,7.64
2022-12-23T19:07:39.151Z,7.48
2022-12-23T19:12:42.782Z,7.37
2022-12-23T19:17:51.432Z,7.36
2022-12-23T19:23:25.225Z,7.42
2022-12-23T19:29:46.064Z,7.62
2022-12-23T19:36:26.320Z,7.91
2022-12-23T19:43:04.305Z,8.18
2022-12-23T19:49:52.966Z,8.28
2022-12-23T19:56:21.128Z,8.29
2022-12-23T20:02:07.108Z,8.33
2022-12-23T20:07:21.745Z,8.34
2022-12-23T20:12:26.546Z,8.34
2022-12-23T20:17:42.138Z,8.38
2022-12-23T20:38:47.747Z,8.51
2022-12-23T20:51:29.270Z,8.14
2022-12-23T20:56:53.086Z,7.95
2022-12-23T21:03:10.744Z,7.75
2022-12-23T21:09:18.123Z,7.56
2022-12-23T21:15:25.769Z,7.44
2022-12-23T21:21:18.787Z,7.34
2022-12-23T21:26:56.394Z,7.31
2022-12-23T21:32:44.937Z,7.28
2022-12-23T21:38:24.092Z,7.23
2022-12-23T21:51:43.771Z,7.22
2022-12-23T21:58:08.334Z,7.18
2022-12-23T22:04:23.062Z,7.06
2022-12-23T22:10:22.576Z,6.98
2022-12-23T22:16:50.099Z,6.83
2022-12-23T22:21:53.862Z,6.70
2022-12-23T22:26:57.111Z,6.63
2022-12-23T22:32:00.472Z,6.57
2022-12-23T22:37:03.995Z,6.48
2022-12-23T22:42:09.554Z,6.45
2022-12-23T22:47:12.647Z,6.41
2022-12-23T22:52:15.781Z,6.42
2022-12-23T22:57:18.832Z,6.42
2022-12-23T23:02:22.086Z,6.43
2022-12-23T23:07:35.385Z,6.45
2022-12-23T23:12:39.170Z,6.40
2022-12-23T23:17:45.685Z,6.34
2022-12-23T23:29:50.624Z,6.34
2022-12-23T23:34:54.090Z,6.32
2022-12-23T23:40:07.151Z,6.27
2022-12-23T23:45:43.626Z,6.20
2022-12-23T23:50:47.751Z,6.14
2022-12-23T23:55:50.908Z,6.15
